sensor_id;sensor_type;location;lat;lon;timestamp;P1;durP1;ratioP1;P2;durP2;ratioP2
47381;SDS011;33128;51.580;5.170;2023-02-03T00:01:31;6.53;;;6.13;;
47381;SDS011;33128;51.580;5.170;2023-02-03T00:03:57;7.53;;;7.03;;
47381;SDS011;33128;51.580;5.170;2023-02-03T00:06:22;6.78;;;6.25;;
47381;SDS011;33128;51.580;5.170;2023-02-03T00:08:48;7.22;;;6.57;;
47381;SDS011;33128;51.580;5.170;2023-02-03T00:11:19;8.00;;;7.35;;
47381;SDS011;33128;51.580;5.170;2023-02-03T00:13:45;8.05;;;7.22;;
47381;SDS011;33128;51.580;5.170;2023-02-03T00:16:11;7.78;;;6.97;;
47381;SDS011;33128;51.580;5.170;2023-02-03T00:18:36;8.05;;;7.32;;
47381;SDS011;33128;51.580;5.170;2023-02-03T00:21:03;6.13;;;5.88;;
47381;SDS011;33128;51.580;5.170;2023-02-03T00:23:29;6.35;;;5.97;;
47381;SDS011;33128;51.580;5.170;2023-02-03T00:25:56;7.97;;;6.45;;
47381;SDS011;33128;51.580;5.170;2023-02-03T00:28:35;15.23;;;6.82;;
47381;SDS011;33128;51.580;5.170;2023-02-03T00:31:13;7.47;;;6.35;;
47381;SDS011;33128;51.580;5.170;2023-02-03T00:33:40;7.07;;;6.20;;
47381;SDS011;33128;51.580;5.170;2023-02-03T00:36:05;7.05;;;6.60;;
47381;SDS011;33128;51.580;5.170;2023-02-03T00:38:31;6.40;;;5.72;;
47381;SDS011;33128;51.580;5.170;2023-02-03T00:40:57;6.88;;;6.55;;
47381;SDS011;33128;51.580;5.170;2023-02-03T00:43:22;7.43;;;6.63;;
47381;SDS011;33128;51.580;5.170;2023-02-03T00:45:48;6.43;;;6.10;;
47381;SDS011;33128;51.580;5.170;2023-02-03T00:48:14;7.95;;;7.18;;
47381;SDS011;33128;51.580;5.170;2023-02-03T00:50:39;6.50;;;5.95;;
47381;SDS011;33128;51.580;5.170;2023-02-03T00:53:05;7.28;;;6.40;;
47381;SDS011;33128;51.580;5.170;2023-02-03T00:55:30;7.63;;;6.85;;
47381;SDS011;33128;51.580;5.170;2023-02-03T00:57:59;8.52;;;7.82;;
47381;SDS011;33128;51.580;5.170;2023-02-03T01:00:25;8.55;;;7.50;;
47381;SDS011;33128;51.580;5.170;2023-02-03T01:02:50;7.40;;;6.68;;
47381;SDS011;33128;51.580;5.170;2023-02-03T01:05:16;13.52;;;6.70;;
47381;SDS011;33128;51.580;5.170;2023-02-03T01:07:42;6.78;;;6.30;;
47381;SDS011;33128;51.580;5.170;2023-02-03T01:10:07;9.10;;;6.78;;
47381;SDS011;33128;51.580;5.170;2023-02-03T01:12:33;9.00;;;7.65;;
47381;SDS011;33128;51.580;5.170;2023-02-03T01:14:59;8.02;;;7.28;;
47381;SDS011;33128;51.580;5.170;2023-02-03T01:17:25;7.57;;;7.03;;
47381;SDS011;33128;51.580;5.170;2023-02-03T01:19:50;9.70;;;6.93;;
47381;SDS011;33128;51.580;5.170;2023-02-03T01:22:19;9.48;;;6.60;;
47381;SDS011;33128;51.580;5.170;2023-02-03T01:24:45;7.32;;;6.72;;
47381;SDS011;33128;51.580;5.170;2023-02-03T01:27:13;7.28;;;6.68;;
47381;SDS011;33128;51.580;5.170;2023-02-03T01:29:39;8.00;;;7.30;;
47381;SDS011;33128;51.580;5.170;2023-02-03T01:32:04;7.78;;;7.18;;
47381;SDS011;33128;51.580;5.170;2023-02-03T01:34:30;7.30;;;6.68;;
47381;SDS011;33128;51.580;5.170;2023-02-03T01:36:55;7.93;;;7.28;;
47381;SDS011;33128;51.580;5.170;2023-02-03T01:39:21;7.53;;;6.65;;
47381;SDS011;33128;51.580;5.170;2023-02-03T01:41:47;7.78;;;7.13;;
47381;SDS011;33128;51.580;5.170;2023-02-03T01:47:02;7.40;;;6.80;;
47381;SDS011;33128;51.580;5.170;2023-02-03T01:49:36;6.88;;;6.40;;
47381;SDS011;33128;51.580;5.170;2023-02-03T01:52:03;6.47;;;6.18;;
47381;SDS011;33128;51.580;5.170;2023-02-03T01:54:32;6.55;;;6.35;;
47381;SDS011;33128;51.580;5.170;2023-02-03T01:57:03;8.75;;;7.60;;
47381;SDS011;33128;51.580;5.170;2023-02-03T01:59:35;7.13;;;6.72;;
47381;SDS011;33128;51.580;5.170;2023-02-03T02:02:01;8.00;;;7.50;;
47381;SDS011;33128;51.580;5.170;2023-02-03T02:04:31;10.02;;;6.93;;
47381;SDS011;33128;51.580;5.170;2023-02-03T02:07:03;7.10;;;6.70;;
47381;SDS011;33128;51.580;5.170;2023-02-03T02:09:30;15.10;;;6.95;;
47381;SDS011;33128;51.580;5.170;2023-02-03T02:11:56;8.90;;;6.97;;
47381;SDS011;33128;51.580;5.170;2023-02-03T02:14:22;7.80;;;7.30;;
47381;SDS011;33128;51.580;5.170;2023-02-03T02:16:57;8.85;;;6.70;;
47381;SDS011;33128;51.580;5.170;2023-02-03T02:22:13;6.68;;;6.22;;
47381;SDS011;33128;51.580;5.170;2023-02-03T02:32:34;8.57;;;8.07;;
47381;SDS011;33128;51.580;5.170;2023-02-03T02:41:04;8.40;;;8.02;;
47381;SDS011;33128;51.580;5.170;2023-02-03T02:43:38;7.60;;;7.03;;
47381;SDS011;33128;51.580;5.170;2023-02-03T02:46:13;7.32;;;6.78;;
47381;SDS011;33128;51.580;5.170;2023-02-03T02:51:35;6.55;;;6.35;;
47381;SDS011;33128;51.580;5.170;2023-02-03T02:54:04;6.82;;;6.20;;
47381;SDS011;33128;51.580;5.170;2023-02-03T02:56:37;7.65;;;6.97;;
47381;SDS011;33128;51.580;5.170;2023-02-03T02:59:04;7.85;;;7.22;;
47381;SDS011;33128;51.580;5.170;2023-02-03T03:01:31;7.68;;;7.28;;
47381;SDS011;33128;51.580;5.170;2023-02-03T03:03:57;8.18;;;7.40;;
47381;SDS011;33128;51.580;5.170;2023-02-03T03:09:05;7.35;;;6.75;;
47381;SDS011;33128;51.580;5.170;2023-02-03T03:11:40;6.63;;;6.32;;
47381;SDS011;33128;51.580;5.170;2023-02-03T03:14:11;7.95;;;6.95;;
47381;SDS011;33128;51.580;5.170;2023-02-03T03:16:42;7.10;;;6.80;;
47381;SDS011;33128;51.580;5.170;2023-02-03T03:19:14;7.50;;;7.13;;
47381;SDS011;33128;51.580;5.170;2023-02-03T03:21:46;7.50;;;6.80;;
47381;SDS011;33128;51.580;5.170;2023-02-03T03:24:20;7.43;;;7.13;;
47381;SDS011;33128;51.580;5.170;2023-02-03T03:27:12;6.82;;;6.18;;
47381;SDS011;33128;51.580;5.170;2023-02-03T03:30:31;7.40;;;6.78;;
47381;SDS011;33128;51.580;5.170;2023-02-03T03:32:44;7.38;;;6.97;;
47381;SDS011;33128;51.580;5.170;2023-02-03T03:35:10;5.82;;;5.63;;
47381;SDS011;33128;51.580;5.170;2023-02-03T03:40:32;11.32;;;6.90;;
47381;SDS011;33128;51.580;5.170;2023-02-03T03:43:04;6.60;;;6.30;;
47381;SDS011;33128;51.580;5.170;2023-02-03T03:45:40;6.15;;;5.65;;
47381;SDS011;33128;51.580;5.170;2023-02-03T03:48:18;10.32;;;7.50;;
47381;SDS011;33128;51.580;5.170;2023-02-03T03:50:55;6.68;;;6.28;;
47381;SDS011;33128;51.580;5.170;2023-02-03T03:58:23;6.10;;;5.80;;
47381;SDS011;33128;51.580;5.170;2023-02-03T04:00:59;6.70;;;6.40;;
47381;SDS011;33128;51.580;5.170;2023-02-03T04:03:32;7.88;;;7.20;;
47381;SDS011;33128;51.580;5.170;2023-02-03T04:06:03;6.70;;;5.90;;
47381;SDS011;33128;51.580;5.170;2023-02-03T04:08:29;6.00;;;5.80;;
47381;SDS011;33128;51.580;5.170;2023-02-03T04:10:55;6.72;;;6.38;;
47381;SDS011;33128;51.580;5.170;2023-02-03T04:13:20;8.18;;;7.55;;
47381;SDS011;33128;51.580;5.170;2023-02-03T04:15:46;7.85;;;7.47;;
47381;SDS011;33128;51.580;5.170;2023-02-03T04:18:12;7.75;;;7.28;;
47381;SDS011;33128;51.580;5.170;2023-02-03T04:20:39;7.50;;;7.20;;
47381;SDS011;33128;51.580;5.170;2023-02-03T04:23:05;7.43;;;6.90;;
47381;SDS011;33128;51.580;5.170;2023-02-03T04:25:31;7.97;;;7.28;;
47381;SDS011;33128;51.580;5.170;2023-02-03T04:27:57;7.07;;;6.78;;
47381;SDS011;33128;51.580;5.170;2023-02-03T04:30:22;7.35;;;7.03;;
47381;SDS011;33128;51.580;5.170;2023-02-03T04:32:48;7.93;;;7.28;;
47381;SDS011;33128;51.580;5.170;2023-02-03T04:35:14;7.75;;;7.25;;
47381;SDS011;33128;51.580;5.170;2023-02-03T04:37:40;7.75;;;7.18;;
47381;SDS011;33128;51.580;5.170;2023-02-03T04:40:05;6.50;;;6.30;;
47381;SDS011;33128;51.580;5.170;2023-02-03T04:42:32;7.15;;;6.75;;
47381;SDS011;33128;51.580;5.170;2023-02-03T04:44:57;6.72;;;6.53;;
47381;SDS011;33128;51.580;5.170;2023-02-03T04:47:23;7.60;;;7.20;;
47381;SDS011;33128;51.580;5.170;2023-02-03T04:49:49;7.45;;;7.10;;
47381;SDS011;33128;51.580;5.170;2023-02-03T04:52:15;7.47;;;7.18;;
47381;SDS011;33128;51.580;5.170;2023-02-03T04:54:41;8.45;;;7.95;;
47381;SDS011;33128;51.580;5.170;2023-02-03T04:57:07;7.45;;;7.05;;
47381;SDS011;33128;51.580;5.170;2023-02-03T04:59:32;7.97;;;7.47;;
47381;SDS011;33128;51.580;5.170;2023-02-03T05:02:00;11.48;;;7.55;;
47381;SDS011;33128;51.580;5.170;2023-02-03T05:04:26;7.22;;;6.70;;
47381;SDS011;33128;51.580;5.170;2023-02-03T05:06:52;8.05;;;7.28;;
47381;SDS011;33128;51.580;5.170;2023-02-03T05:09:18;6.10;;;5.90;;
47381;SDS011;33128;51.580;5.170;2023-02-03T05:11:43;9.00;;;7.72;;
47381;SDS011;33128;51.580;5.170;2023-02-03T05:14:09;7.10;;;6.80;;
47381;SDS011;33128;51.580;5.170;2023-02-03T05:16:34;6.78;;;6.47;;
47381;SDS011;33128;51.580;5.170;2023-02-03T05:19:00;7.47;;;7.18;;
47381;SDS011;33128;51.580;5.170;2023-02-03T05:21:26;6.90;;;6.70;;
47381;SDS011;33128;51.580;5.170;2023-02-03T05:23:51;7.68;;;6.72;;
47381;SDS011;33128;51.580;5.170;2023-02-03T05:26:17;7.20;;;6.90;;
47381;SDS011;33128;51.580;5.170;2023-02-03T05:28:42;7.15;;;6.80;;
47381;SDS011;33128;51.580;5.170;2023-02-03T05:31:08;8.00;;;7.70;;
47381;SDS011;33128;51.580;5.170;2023-02-03T05:33:33;8.10;;;7.50;;
47381;SDS011;33128;51.580;5.170;2023-02-03T05:35:59;6.97;;;6.72;;
47381;SDS011;33128;51.580;5.170;2023-02-03T05:38:25;7.60;;;7.20;;
47381;SDS011;33128;51.580;5.170;2023-02-03T05:40:50;6.68;;;6.38;;
47381;SDS011;33128;51.580;5.170;2023-02-03T05:43:35;7.15;;;6.85;;
47381;SDS011;33128;51.580;5.170;2023-02-03T05:46:01;7.00;;;6.60;;
47381;SDS011;33128;51.580;5.170;2023-02-03T05:48:29;6.80;;;6.43;;
47381;SDS011;33128;51.580;5.170;2023-02-03T05:50:54;7.20;;;6.90;;
47381;SDS011;33128;51.580;5.170;2023-02-03T05:53:20;7.55;;;7.15;;
47381;SDS011;33128;51.580;5.170;2023-02-03T05:55:46;7.72;;;7.22;;
47381;SDS011;33128;51.580;5.170;2023-02-03T05:58:11;7.47;;;6.80;;
47381;SDS011;33128;51.580;5.170;2023-02-03T06:00:37;6.80;;;6.50;;
47381;SDS011;33128;51.580;5.170;2023-02-03T06:03:03;6.63;;;6.32;;
47381;SDS011;33128;51.580;5.170;2023-02-03T06:05:29;7.25;;;6.75;;
47381;SDS011;33128;51.580;5.170;2023-02-03T06:07:55;7.38;;;6.80;;
47381;SDS011;33128;51.580;5.170;2023-02-03T06:10:21;7.05;;;6.75;;
47381;SDS011;33128;51.580;5.170;2023-02-03T06:12:47;7.30;;;6.90;;
47381;SDS011;33128;51.580;5.170;2023-02-03T06:15:13;6.57;;;6.28;;
47381;SDS011;33128;51.580;5.170;2023-02-03T06:17:42;7.45;;;7.15;;
47381;SDS011;33128;51.580;5.170;2023-02-03T06:20:13;7.70;;;7.13;;
47381;SDS011;33128;51.580;5.170;2023-02-03T06:22:41;7.75;;;7.10;;
47381;SDS011;33128;51.580;5.170;2023-02-03T06:25:07;7.88;;;7.18;;
47381;SDS011;33128;51.580;5.170;2023-02-03T06:27:33;7.55;;;7.00;;
47381;SDS011;33128;51.580;5.170;2023-02-03T06:29:59;6.85;;;6.55;;
47381;SDS011;33128;51.580;5.170;2023-02-03T06:32:24;7.20;;;6.90;;
47381;SDS011;33128;51.580;5.170;2023-02-03T06:34:50;7.22;;;6.90;;
47381;SDS011;33128;51.580;5.170;2023-02-03T06:37:16;7.97;;;7.47;;
47381;SDS011;33128;51.580;5.170;2023-02-03T06:39:41;6.40;;;6.00;;
47381;SDS011;33128;51.580;5.170;2023-02-03T06:42:07;6.95;;;6.53;;
47381;SDS011;33128;51.580;5.170;2023-02-03T06:44:33;7.28;;;6.97;;
47381;SDS011;33128;51.580;5.170;2023-02-03T06:46:58;6.55;;;6.25;;
47381;SDS011;33128;51.580;5.170;2023-02-03T06:49:26;6.95;;;6.55;;
47381;SDS011;33128;51.580;5.170;2023-02-03T06:51:51;7.20;;;6.80;;
47381;SDS011;33128;51.580;5.170;2023-02-03T06:54:17;7.38;;;6.90;;
47381;SDS011;33128;51.580;5.170;2023-02-03T06:56:42;7.38;;;6.53;;
47381;SDS011;33128;51.580;5.170;2023-02-03T06:59:08;6.95;;;6.50;;
47381;SDS011;33128;51.580;5.170;2023-02-03T07:01:35;6.80;;;6.50;;
47381;SDS011;33128;51.580;5.170;2023-02-03T07:04:01;8.02;;;7.15;;
47381;SDS011;33128;51.580;5.170;2023-02-03T07:06:27;7.15;;;6.80;;
47381;SDS011;33128;51.580;5.170;2023-02-03T07:08:55;7.43;;;6.68;;
47381;SDS011;33128;51.580;5.170;2023-02-03T07:11:21;8.93;;;8.38;;
47381;SDS011;33128;51.580;5.170;2023-02-03T07:13:49;8.05;;;7.70;;
47381;SDS011;33128;51.580;5.170;2023-02-03T07:16:15;7.50;;;7.20;;
47381;SDS011;33128;51.580;5.170;2023-02-03T07:18:41;8.02;;;7.65;;
47381;SDS011;33128;51.580;5.170;2023-02-03T07:21:09;8.45;;;7.93;;
47381;SDS011;33128;51.580;5.170;2023-02-03T07:23:34;8.68;;;8.27;;
47381;SDS011;33128;51.580;5.170;2023-02-03T07:26:02;8.48;;;7.90;;
47381;SDS011;33128;51.580;5.170;2023-02-03T07:28:32;8.13;;;7.72;;
47381;SDS011;33128;51.580;5.170;2023-02-03T07:30:59;8.48;;;8.10;;
47381;SDS011;33128;51.580;5.170;2023-02-03T07:33:45;8.75;;;8.25;;
47381;SDS011;33128;51.580;5.170;2023-02-03T07:36:10;7.88;;;7.47;;
47381;SDS011;33128;51.580;5.170;2023-02-03T07:38:36;7.57;;;7.20;;
47381;SDS011;33128;51.580;5.170;2023-02-03T07:41:02;7.82;;;7.10;;
47381;SDS011;33128;51.580;5.170;2023-02-03T07:43:29;8.20;;;7.57;;
47381;SDS011;33128;51.580;5.170;2023-02-03T07:45:54;7.60;;;7.30;;
47381;SDS011;33128;51.580;5.170;2023-02-03T07:48:20;7.80;;;7.50;;
47381;SDS011;33128;51.580;5.170;2023-02-03T07:50:49;7.82;;;7.45;;
47381;SDS011;33128;51.580;5.170;2023-02-03T07:53:15;7.47;;;7.18;;
47381;SDS011;33128;51.580;5.170;2023-02-03T07:55:41;8.80;;;7.15;;
47381;SDS011;33128;51.580;5.170;2023-02-03T07:58:06;7.70;;;7.30;;
47381;SDS011;33128;51.580;5.170;2023-02-03T08:00:32;7.28;;;6.63;;
47381;SDS011;33128;51.580;5.170;2023-02-03T08:02:58;7.60;;;7.13;;
47381;SDS011;33128;51.580;5.170;2023-02-03T08:05:24;7.03;;;6.82;;
47381;SDS011;33128;51.580;5.170;2023-02-03T08:07:50;7.25;;;6.93;;
47381;SDS011;33128;51.580;5.170;2023-02-03T08:10:15;7.22;;;6.82;;
47381;SDS011;33128;51.580;5.170;2023-02-03T08:12:41;7.43;;;7.03;;
47381;SDS011;33128;51.580;5.170;2023-02-03T08:15:10;7.10;;;6.80;;
47381;SDS011;33128;51.580;5.170;2023-02-03T08:17:36;7.20;;;6.90;;
47381;SDS011;33128;51.580;5.170;2023-02-03T08:20:04;7.25;;;6.95;;
47381;SDS011;33128;51.580;5.170;2023-02-03T08:22:31;7.18;;;6.80;;
47381;SDS011;33128;51.580;5.170;2023-02-03T08:24:56;7.93;;;7.32;;
47381;SDS011;33128;51.580;5.170;2023-02-03T08:27:24;8.43;;;7.70;;
47381;SDS011;33128;51.580;5.170;2023-02-03T08:29:50;8.00;;;7.50;;
47381;SDS011;33128;51.580;5.170;2023-02-03T08:32:17;8.00;;;7.63;;
47381;SDS011;33128;51.580;5.170;2023-02-03T08:34:45;8.55;;;8.18;;
47381;SDS011;33128;51.580;5.170;2023-02-03T08:37:11;7.80;;;7.20;;
47381;SDS011;33128;51.580;5.170;2023-02-03T08:39:38;8.02;;;7.28;;
47381;SDS011;33128;51.580;5.170;2023-02-03T08:42:03;7.65;;;7.15;;
47381;SDS011;33128;51.580;5.170;2023-02-03T08:44:30;7.63;;;7.25;;
47381;SDS011;33128;51.580;5.170;2023-02-03T08:46:56;7.38;;;7.07;;
47381;SDS011;33128;51.580;5.170;2023-02-03T08:49:23;7.60;;;6.90;;
47381;SDS011;33128;51.580;5.170;2023-02-03T08:51:50;7.90;;;7.38;;
47381;SDS011;33128;51.580;5.170;2023-02-03T08:54:16;8.63;;;7.97;;
47381;SDS011;33128;51.580;5.170;2023-02-03T08:56:43;7.97;;;7.50;;
47381;SDS011;33128;51.580;5.170;2023-02-03T08:59:09;9.27;;;7.20;;
47381;SDS011;33128;51.580;5.170;2023-02-03T09:01:38;7.97;;;7.43;;
47381;SDS011;33128;51.580;5.170;2023-02-03T09:04:09;7.88;;;7.47;;
47381;SDS011;33128;51.580;5.170;2023-02-03T09:06:36;9.35;;;8.70;;
47381;SDS011;33128;51.580;5.170;2023-02-03T09:09:04;8.27;;;7.68;;
47381;SDS011;33128;51.580;5.170;2023-02-03T09:11:30;7.70;;;7.30;;
47381;SDS011;33128;51.580;5.170;2023-02-03T09:13:56;7.40;;;7.05;;
47381;SDS011;33128;51.580;5.170;2023-02-03T09:16:22;6.70;;;6.50;;
47381;SDS011;33128;51.580;5.170;2023-02-03T09:18:49;8.18;;;7.65;;
47381;SDS011;33128;51.580;5.170;2023-02-03T09:21:15;8.27;;;7.65;;
47381;SDS011;33128;51.580;5.170;2023-02-03T09:23:43;8.20;;;7.60;;
47381;SDS011;33128;51.580;5.170;2023-02-03T09:26:12;10.15;;;7.05;;
47381;SDS011;33128;51.580;5.170;2023-02-03T09:28:38;6.78;;;6.47;;
47381;SDS011;33128;51.580;5.170;2023-02-03T09:31:05;8.88;;;8.35;;
47381;SDS011;33128;51.580;5.170;2023-02-03T09:33:33;7.32;;;6.88;;
47381;SDS011;33128;51.580;5.170;2023-02-03T09:36:01;7.13;;;6.82;;
47381;SDS011;33128;51.580;5.170;2023-02-03T09:38:27;7.43;;;6.80;;
47381;SDS011;33128;51.580;5.170;2023-02-03T09:41:04;7.32;;;6.70;;
47381;SDS011;33128;51.580;5.170;2023-02-03T09:43:52;10.27;;;7.30;;
47381;SDS011;33128;51.580;5.170;2023-02-03T09:46:27;7.63;;;6.93;;
47381;SDS011;33128;51.580;5.170;2023-02-03T09:48:58;7.53;;;6.80;;
47381;SDS011;33128;51.580;5.170;2023-02-03T09:51:35;7.47;;;6.85;;
47381;SDS011;33128;51.580;5.170;2023-02-03T09:54:09;7.40;;;7.00;;
47381;SDS011;33128;51.580;5.170;2023-02-03T09:56:41;7.88;;;7.47;;
47381;SDS011;33128;51.580;5.170;2023-02-03T09:59:14;7.00;;;6.60;;
47381;SDS011;33128;51.580;5.170;2023-02-03T10:01:43;7.18;;;6.78;;
47381;SDS011;33128;51.580;5.170;2023-02-03T10:04:23;8.45;;;7.75;;
47381;SDS011;33128;51.580;5.170;2023-02-03T10:07:05;9.05;;;7.88;;
47381;SDS011;33128;51.580;5.170;2023-02-03T10:09:42;8.43;;;7.32;;
47381;SDS011;33128;51.580;5.170;2023-02-03T10:12:30;7.50;;;6.88;;
47381;SDS011;33128;51.580;5.170;2023-02-03T10:20:26;9.70;;;8.80;;
47381;SDS011;33128;51.580;5.170;2023-02-03T10:23:00;8.20;;;7.80;;
47381;SDS011;33128;51.580;5.170;2023-02-03T10:28:08;8.25;;;7.43;;
47381;SDS011;33128;51.580;5.170;2023-02-03T10:30:44;8.10;;;7.60;;
47381;SDS011;33128;51.580;5.170;2023-02-03T10:33:13;15.63;;;8.77;;
47381;SDS011;33128;51.580;5.170;2023-02-03T10:38:50;9.00;;;7.93;;
47381;SDS011;33128;51.580;5.170;2023-02-03T10:41:22;9.30;;;8.52;;
47381;SDS011;33128;51.580;5.170;2023-02-03T10:43:49;8.80;;;8.00;;
47381;SDS011;33128;51.580;5.170;2023-02-03T10:46:17;8.20;;;7.43;;
47381;SDS011;33128;51.580;5.170;2023-02-03T10:48:54;8.60;;;7.97;;
47381;SDS011;33128;51.580;5.170;2023-02-03T10:51:27;8.52;;;8.02;;
47381;SDS011;33128;51.580;5.170;2023-02-03T10:53:59;8.43;;;7.90;;
47381;SDS011;33128;51.580;5.170;2023-02-03T10:56:26;9.15;;;8.38;;
47381;SDS011;33128;51.580;5.170;2023-02-03T10:58:56;8.68;;;8.20;;
47381;SDS011;33128;51.580;5.170;2023-02-03T11:01:27;8.10;;;7.45;;
47381;SDS011;33128;51.580;5.170;2023-02-03T11:04:05;8.70;;;8.30;;
47381;SDS011;33128;51.580;5.170;2023-02-03T11:06:33;9.23;;;8.63;;
47381;SDS011;33128;51.580;5.170;2023-02-03T11:09:00;8.57;;;8.10;;
47381;SDS011;33128;51.580;5.170;2023-02-03T11:11:27;8.63;;;7.80;;
47381;SDS011;33128;51.580;5.170;2023-02-03T11:16:27;8.15;;;7.32;;
47381;SDS011;33128;51.580;5.170;2023-02-03T11:19:04;7.90;;;7.20;;
47381;SDS011;33128;51.580;5.170;2023-02-03T11:24:08;8.30;;;7.55;;
47381;SDS011;33128;51.580;5.170;2023-02-03T11:26:51;7.97;;;7.25;;
47381;SDS011;33128;51.580;5.170;2023-02-03T11:29:21;7.30;;;7.00;;
47381;SDS011;33128;51.580;5.170;2023-02-03T11:31:53;8.10;;;7.45;;
47381;SDS011;33128;51.580;5.170;2023-02-03T11:34:24;9.00;;;8.40;;
47381;SDS011;33128;51.580;5.170;2023-02-03T11:36:57;7.47;;;7.18;;
47381;SDS011;33128;51.580;5.170;2023-02-03T11:39:50;7.05;;;6.68;;
47381;SDS011;33128;51.580;5.170;2023-02-03T11:42:36;7.65;;;7.35;;
47381;SDS011;33128;51.580;5.170;2023-02-03T11:45:16;8.02;;;7.47;;
47381;SDS011;33128;51.580;5.170;2023-02-03T11:47:57;8.20;;;7.70;;
47381;SDS011;33128;51.580;5.170;2023-02-03T11:55:44;13.27;;;7.57;;
47381;SDS011;33128;51.580;5.170;2023-02-03T11:58:37;8.32;;;7.30;;
47381;SDS011;33128;51.580;5.170;2023-02-03T12:19:46;7.97;;;7.47;;
47381;SDS011;33128;51.580;5.170;2023-02-03T12:28:05;7.35;;;6.95;;
47381;SDS011;33128;51.580;5.170;2023-02-03T12:30:46;7.68;;;7.15;;
47381;SDS011;33128;51.580;5.170;2023-02-03T12:33:26;8.93;;;8.00;;
47381;SDS011;33128;51.580;5.170;2023-02-03T12:36:14;15.90;;;7.68;;
47381;SDS011;33128;51.580;5.170;2023-02-03T12:41:17;12.77;;;7.68;;
47381;SDS011;33128;51.580;5.170;2023-02-03T12:43:59;8.70;;;7.13;;
47381;SDS011;33128;51.580;5.170;2023-02-03T12:49:13;8.27;;;7.50;;
47381;SDS011;33128;51.580;5.170;2023-02-03T12:54:32;8.13;;;7.63;;
47381;SDS011;33128;51.580;5.170;2023-02-03T12:57:34;12.93;;;8.00;;
47381;SDS011;33128;51.580;5.170;2023-02-03T13:00:24;7.82;;;7.22;;
47381;SDS011;33128;51.580;5.170;2023-02-03T13:03:16;7.72;;;7.22;;
47381;SDS011;33128;51.580;5.170;2023-02-03T13:09:23;8.43;;;6.60;;
47381;SDS011;33128;51.580;5.170;2023-02-03T13:14:40;5.80;;;5.38;;
47381;SDS011;33128;51.580;5.170;2023-02-03T13:17:26;5.85;;;5.55;;
47381;SDS011;33128;51.580;5.170;2023-02-03T13:19:59;5.68;;;5.18;;
47381;SDS011;33128;51.580;5.170;2023-02-03T13:22:30;5.82;;;5.40;;
47381;SDS011;33128;51.580;5.170;2023-02-03T13:25:14;6.43;;;5.90;;
47381;SDS011;33128;51.580;5.170;2023-02-03T13:41:46;7.90;;;5.65;;
47381;SDS011;33128;51.580;5.170;2023-02-03T13:44:15;6.00;;;5.50;;
47381;SDS011;33128;51.580;5.170;2023-02-03T13:46:46;7.10;;;5.82;;
47381;SDS011;33128;51.580;5.170;2023-02-03T13:49:17;5.38;;;4.78;;
47381;SDS011;33128;51.580;5.170;2023-02-03T13:51:54;6.00;;;5.57;;
47381;SDS011;33128;51.580;5.170;2023-02-03T13:56:57;6.53;;;5.10;;
47381;SDS011;33128;51.580;5.170;2023-02-03T14:04:57;5.95;;;5.68;;
47381;SDS011;33128;51.580;5.170;2023-02-03T14:17:58;5.10;;;4.90;;
47381;SDS011;33128;51.580;5.170;2023-02-03T14:22:56;6.22;;;5.70;;
47381;SDS011;33128;51.580;5.170;2023-02-03T14:25:26;5.95;;;5.38;;
47381;SDS011;33128;51.580;5.170;2023-02-03T14:28:01;5.40;;;5.00;;
47381;SDS011;33128;51.580;5.170;2023-02-03T14:30:30;5.30;;;5.10;;
47381;SDS011;33128;51.580;5.170;2023-02-03T14:32:59;5.70;;;5.50;;
47381;SDS011;33128;51.580;5.170;2023-02-03T14:35:36;8.40;;;5.78;;
47381;SDS011;33128;51.580;5.170;2023-02-03T14:38:08;6.10;;;5.50;;
47381;SDS011;33128;51.580;5.170;2023-02-03T14:40:58;6.00;;;5.55;;
47381;SDS011;33128;51.580;5.170;2023-02-03T14:51:56;5.03;;;4.68;;
47381;SDS011;33128;51.580;5.170;2023-02-03T14:57:17;5.20;;;5.00;;
47381;SDS011;33128;51.580;5.170;2023-02-03T15:05:40;5.85;;;5.45;;
47381;SDS011;33128;51.580;5.170;2023-02-03T15:10:57;5.95;;;5.65;;
47381;SDS011;33128;51.580;5.170;2023-02-03T15:13:24;5.57;;;5.00;;
47381;SDS011;33128;51.580;5.170;2023-02-03T15:16:00;5.13;;;4.90;;
47381;SDS011;33128;51.580;5.170;2023-02-03T15:18:32;5.65;;;5.35;;
47381;SDS011;33128;51.580;5.170;2023-02-03T15:21:04;4.78;;;4.57;;
47381;SDS011;33128;51.580;5.170;2023-02-03T15:23:39;5.72;;;5.22;;
47381;SDS011;33128;51.580;5.170;2023-02-03T15:26:43;4.90;;;4.70;;
47381;SDS011;33128;51.580;5.170;2023-02-03T15:29:16;4.88;;;4.60;;
47381;SDS011;33128;51.580;5.170;2023-02-03T15:32:15;7.00;;;4.93;;
47381;SDS011;33128;51.580;5.170;2023-02-03T15:34:42;5.63;;;5.32;;
47381;SDS011;33128;51.580;5.170;2023-02-03T15:37:14;5.07;;;4.78;;
47381;SDS011;33128;51.580;5.170;2023-02-03T15:42:42;5.18;;;4.88;;
47381;SDS011;33128;51.580;5.170;2023-02-03T15:47:57;5.97;;;5.57;;
47381;SDS011;33128;51.580;5.170;2023-02-03T15:50:30;5.55;;;5.25;;
47381;SDS011;33128;51.580;5.170;2023-02-03T15:53:03;5.05;;;4.82;;
47381;SDS011;33128;51.580;5.170;2023-02-03T15:55:42;5.80;;;5.40;;
47381;SDS011;33128;51.580;5.170;2023-02-03T15:58:34;5.72;;;5.10;;
47381;SDS011;33128;51.580;5.170;2023-02-03T16:01:06;4.93;;;4.72;;
47381;SDS011;33128;51.580;5.170;2023-02-03T16:03:39;5.88;;;5.47;;
47381;SDS011;33128;51.580;5.170;2023-02-03T16:06:06;5.60;;;5.30;;
47381;SDS011;33128;51.580;5.170;2023-02-03T16:08:54;5.93;;;5.43;;
47381;SDS011;33128;51.580;5.170;2023-02-03T16:11:29;6.60;;;5.30;;
47381;SDS011;33128;51.580;5.170;2023-02-03T16:14:00;6.18;;;5.82;;
47381;SDS011;33128;51.580;5.170;2023-02-03T16:16:48;5.90;;;5.60;;
47381;SDS011;33128;51.580;5.170;2023-02-03T16:19:22;6.78;;;6.38;;
47381;SDS011;33128;51.580;5.170;2023-02-03T16:24:34;6.00;;;5.70;;
47381;SDS011;33128;51.580;5.170;2023-02-03T16:27:26;5.50;;;5.30;;
47381;SDS011;33128;51.580;5.170;2023-02-03T16:32:58;6.15;;;5.75;;
47381;SDS011;33128;51.580;5.170;2023-02-03T16:35:53;6.28;;;5.90;;
47381;SDS011;33128;51.580;5.170;2023-02-03T16:38:48;5.00;;;4.80;;
47381;SDS011;33128;51.580;5.170;2023-02-03T16:41:33;6.80;;;6.20;;
47381;SDS011;33128;51.580;5.170;2023-02-03T16:44:18;6.22;;;5.78;;
47381;SDS011;33128;51.580;5.170;2023-02-03T16:47:03;5.80;;;5.40;;
47381;SDS011;33128;51.580;5.170;2023-02-03T16:49:58;5.18;;;4.80;;
47381;SDS011;33128;51.580;5.170;2023-02-03T16:52:42;5.88;;;5.28;;
47381;SDS011;33128;51.580;5.170;2023-02-03T16:55:08;5.25;;;5.05;;
47381;SDS011;33128;51.580;5.170;2023-02-03T16:57:35;5.05;;;4.65;;
47381;SDS011;33128;51.580;5.170;2023-02-03T17:00:00;5.88;;;5.40;;
47381;SDS011;33128;51.580;5.170;2023-02-03T17:02:26;6.97;;;5.90;;
47381;SDS011;33128;51.580;5.170;2023-02-03T17:04:52;5.70;;;5.50;;
47381;SDS011;33128;51.580;5.170;2023-02-03T17:07:18;8.57;;;5.75;;
47381;SDS011;33128;51.580;5.170;2023-02-03T17:09:43;6.00;;;5.70;;
47381;SDS011;33128;51.580;5.170;2023-02-03T17:12:09;6.40;;;6.10;;
47381;SDS011;33128;51.580;5.170;2023-02-03T17:14:35;9.35;;;6.93;;
47381;SDS011;33128;51.580;5.170;2023-02-03T17:17:01;6.70;;;6.30;;
47381;SDS011;33128;51.580;5.170;2023-02-03T17:19:26;6.18;;;5.88;;
47381;SDS011;33128;51.580;5.170;2023-02-03T17:21:52;6.18;;;5.57;;
47381;SDS011;33128;51.580;5.170;2023-02-03T17:24:17;6.13;;;5.80;;
47381;SDS011;33128;51.580;5.170;2023-02-03T17:26:44;5.90;;;5.40;;
47381;SDS011;33128;51.580;5.170;2023-02-03T17:29:10;6.00;;;5.70;;
47381;SDS011;33128;51.580;5.170;2023-02-03T17:31:36;6.10;;;5.80;;
47381;SDS011;33128;51.580;5.170;2023-02-03T17:34:01;6.82;;;6.47;;
47381;SDS011;33128;51.580;5.170;2023-02-03T17:36:30;7.00;;;6.30;;
47381;SDS011;33128;51.580;5.170;2023-02-03T17:38:56;5.88;;;5.68;;
47381;SDS011;33128;51.580;5.170;2023-02-03T17:41:22;6.20;;;5.90;;
47381;SDS011;33128;51.580;5.170;2023-02-03T17:43:50;6.55;;;6.07;;
47381;SDS011;33128;51.580;5.170;2023-02-03T17:46:19;6.55;;;5.70;;